AirNav   Air Wisconsin pilot careers
 
 906 users online  

4TX2 Stage Coach Hills Airport
Westlake, Texas, USA

GOING TO WESTLAKE?


FAA INFORMATION EFFECTIVE 16 AUGUST 2018

Location

FAA Identifier: 4TX2
Lat/Long: 32-58-00.4490N / 097-14-01.0530W
32-58.007483N / 097-14.017550W
32.9667914 / -97.2336258
(estimated)
Elevation: 684 ft. / 208 m (estimated)
Variation: 07E (1985)
From city: 2 miles SW of WESTLAKE, TX
Time zone: UTC -5 (UTC -6 during Standard Time)
Zip code: 76262

Airport Operations

Airport use: Private use. Permission required prior to landing
Activation date: 07/1973
Control tower: no
ARTCC: FORT WORTH CENTER
FSS: FORT WORTH FLIGHT SERVICE STATION
Attendance: UNATNDD
Wind indicator: yes
Segmented circle: yes

Airport Communications

WX ASOS at AFW (5 nm W): PHONE 817-491-6188
WX ASOS at DFW (11 nm SE): PHONE 972-615-2608
WX ASOS at FTW (11 nm SW): PHONE 817-740-3346
WX ASOS at DTO (14 nm N): 119.325 (940-383-8457)
WX AWOS-3P at GPM (19 nm SE): 118.475 (972-606-1433)
WX ASOS at GKY (19 nm S): 127.375 (817-557-0251)
WX AWOS-3 at ADS (20 nm E): PHONE 972-386-4855

Nearby radio navigation aids

VOR radial/distance  VOR name  Freq  Var
FUZr324/5.4RANGER VORTAC115.7006E
TTTr295/11.4MAVERICK VOR/DME113.1006E
CVEr279/17.2COWBOY VOR/DME116.2006E

 
NDB name  Hdg/Dist  Freq  Var  ID
MUFIN050/8.336508EFT ..-. -
MESQUITE282/36.724803EPQF .--. --.- ..-.
MELISA238/36.942103EVLY ...- .-.. -.--

Airport Services

Airframe service: NONE
Powerplant service: NONE

Runway Information

Runway 17/35

Dimensions: 2700 x 90 ft. / 823 x 27 m
Surface: turf
RUNWAY 17  RUNWAY 35
Traffic pattern: rightleft

Airport Ownership and Management from official FAA records

Ownership: Privately-owned
Owner: STEVE THORNTON
13187 THORTON DRIVE
ROANOKE, TX 76262
Phone (817) 995-9647
Manager: J. L. HASKINS
5920 STEVE COURT
WESTLAKE , TX 76262
Phone 817-430-1987

Airport Operational Statistics

Aircraft based on the field: 17
Single engine airplanes: 16
Multi engine airplanes: 1
    

Additional Remarks

TREES ALONG WESTERN EDGE OF RY.

Instrument Procedures

There are no published instrument procedures at 4TX2.

Some nearby airports with instrument procedures:

KAFW - Fort Worth Alliance Airport (5 nm W)
KDFW - Dallas-Fort Worth International Airport (11 nm SE)
KFTW - Fort Worth Meacham International Airport (11 nm SW)
4T2 - Kenneth Copeland Airport (13 nm W)
KDTO - Denton Enterprise Airport (14 nm N)
KNFW - Fort Worth Naval Air Station JRB (Carswell Field) Airport (16 nm SW)
KGPM - Grand Prairie Municipal Airport (19 nm SE)
KGKY - Arlington Municipal Airport (19 nm S)
KADS - Addison Airport (20 nm E)
 
Loc | Ops | Rwys | IFR | FBO | Links
Com | Nav | Svcs | Stats | Notes


 
Area around 4TX2 (Stage Coach Hills Airport)
 
Road maps at: MapQuest Bing Google
 
Aerial photo
WARNING: Photo may not be current or correct
Aerial photo of 4TX2 (Stage Coach Hills Airport)
Do you have a better or more recent aerial photo of Stage Coach Hills Airport that you would like to share? If so, please send us your photo.

 
Sectional chart

 
Airport distance calculator
Flying to Stage Coach Hills Airport? Find the distance to fly.

From to 4TX2

Sunrise and sunset
Times for 20-Aug-2018
 Local
(UTC-5)
 Zulu
(UTC)
Morning civil twilight06:3111:31
Sunrise06:5611:56
Sunset20:0801:08
Evening civil twilight20:3401:34

Current date and time
Zulu (UTC)  21-Aug-2018 03:07:03
Local (UTC-5)  20-Aug-2018 22:07:03
 
METAR
KAFW 
4nm W 
210253Z 35006KT 10SM CLR 27/17 A3001 RMK AO2 SLP147 T02720172 53021
KFTW 
10nm SW 
210253Z 35006KT 10SM CLR 25/19 A3000 RMK AO2 SLP151 T02500189 53020
KDFW 
12nm E 
210253Z 02007KT 10SM CLR 28/18 A2999 RMK AO2 SLP147 T02780183 53021
KDTO 
14nm N 
210253Z 36004KT 10SM CLR 25/19 A3001 RMK AO2 SLP154 T02500189 53022
KNFW 
16nm SW 
210252Z 34006KT 10SM CLR 29/17 A3001 RMK AO2 SLP145 T02890172 53019 $
KGPM 
18nm SE 
210255Z AUTO 34004KT 10SM CLR 29/16 A3002 RMK AO2 T02920158
KGKY 
19nm S 
210253Z AUTO 34006KT 10SM CLR 29/18 A3000 RMK AO2 SLP150 T02890183 53021
TAF
KAFW 
4nm W 
202109Z 2021/2118 34010KT P6SM FEW100 FM210100 01006KT P6SM SCT250
KFTW 
10nm SW 
202109Z 2021/2118 33011KT P6SM FEW250 FM210100 36006KT P6SM FEW250
KDFW 
12nm E 
202109Z 2021/2124 33011KT P6SM FEW250 FM210100 36006KT P6SM FEW250
KNFW 
16nm SW 
2023/2123 36006KT 9999 SCT300 QNH2993INS AUTOMATED SENSOR METWATCH 2104 TIL 2111 T23/2112Z T36/2122Z FN20048
KGKY 
19nm S 
202109Z 2021/2118 33011KT P6SM FEW250 FM210100 36006KT P6SM FEW250
NOTAMs
Click for the latest NOTAMs
NOTAMs are issued by the DoD/FAA and will open in a separate window not controlled by AirNav.

 

 
 

Would you like to see your business listed on this page?

 If your business provides an interesting product or service to pilots, flight crews, aircraft, or users of the Stage Coach Hills Airport, you should consider listing it here.  To start the listing process, click on the button below
 
Add a business
 

Other Pages about Stage Coach Hills Airport

Update a link
 
Copyright © AirNav, LLC. All rights reserved. Privacy Policy  Contact